createdAt,value
2017-12-04T00:01:55.181Z,6.57
2017-12-04T00:04:26.039Z,6.50
2017-12-04T00:06:56.924Z,6.50
2017-12-04T00:09:27.805Z,6.90
2017-12-04T00:11:58.648Z,6.07
2017-12-04T00:14:29.499Z,5.30
2017-12-04T00:17:00.393Z,6.30
2017-12-04T00:19:31.236Z,5.63
2017-12-04T00:22:02.112Z,5.93
2017-12-04T00:24:32.969Z,5.47
2017-12-04T00:27:03.823Z,6.10
2017-12-04T00:29:34.669Z,5.00
2017-12-04T00:32:06.110Z,5.17
2017-12-04T00:34:36.934Z,5.70
2017-12-04T00:37:07.770Z,5.43
2017-12-04T00:39:38.611Z,5.60
2017-12-04T00:42:09.478Z,5.40
2017-12-04T00:44:40.342Z,5.00
2017-12-04T00:47:11.220Z,5.63
2017-12-04T00:49:42.065Z,5.00
2017-12-04T00:52:12.912Z,5.03
2017-12-04T00:54:43.783Z,5.00
2017-12-04T00:57:14.633Z,5.50
2017-12-04T00:59:45.511Z,4.50
2017-12-04T01:02:16.773Z,5.07
2017-12-04T01:04:47.619Z,4.87
2017-12-04T01:07:18.495Z,4.90
2017-12-04T01:09:49.356Z,4.73
2017-12-04T01:12:20.191Z,5.60
2017-12-04T01:14:51.043Z,5.40
2017-12-04T01:17:21.921Z,4.30
2017-12-04T01:19:52.791Z,4.70
2017-12-04T01:22:23.651Z,5.20
2017-12-04T01:24:54.499Z,4.93
2017-12-04T01:27:25.364Z,4.70
2017-12-04T01:29:56.257Z,4.40
2017-12-04T01:32:27.105Z,5.03
2017-12-04T01:34:57.959Z,4.57
2017-12-04T01:37:28.804Z,4.60
2017-12-04T01:39:59.644Z,4.10
2017-12-04T01:42:30.502Z,4.00
2017-12-04T01:45:01.357Z,4.53
2017-12-04T01:47:32.223Z,4.57
2017-12-04T01:50:03.086Z,4.70
2017-12-04T01:52:34.028Z,3.53
2017-12-04T01:55:04.874Z,3.70
2017-12-04T01:57:35.753Z,4.20
2017-12-04T02:00:06.596Z,4.57
2017-12-04T02:02:37.474Z,4.47
2017-12-04T02:05:08.313Z,4.43
2017-12-04T02:07:39.210Z,4.03
2017-12-04T02:10:10.086Z,4.57
2017-12-04T02:12:40.931Z,4.07
2017-12-04T02:15:11.877Z,4.43
2017-12-04T02:17:42.725Z,4.20
2017-12-04T02:20:13.565Z,4.07
2017-12-04T02:22:44.443Z,4.20
2017-12-04T02:25:15.282Z,4.73
2017-12-04T02:27:46.158Z,4.20
2017-12-04T02:30:17.026Z,4.10
2017-12-04T02:32:47.890Z,4.17
2017-12-04T02:35:18.774Z,4.10
2017-12-04T02:37:49.609Z,4.20
2017-12-04T02:40:20.476Z,4.17
2017-12-04T02:42:51.333Z,4.10
2017-12-04T02:45:22.211Z,3.90
2017-12-04T02:47:53.064Z,3.90
2017-12-04T02:50:23.984Z,3.77
2017-12-04T02:52:54.850Z,3.60
2017-12-04T02:55:25.707Z,4.80
2017-12-04T02:57:56.540Z,4.07
2017-12-04T03:00:27.425Z,3.33
2017-12-04T03:02:58.255Z,4.27
2017-12-04T03:05:29.108Z,3.93
2017-12-04T03:07:59.954Z,4.30
2017-12-04T03:10:30.835Z,4.03
2017-12-04T03:13:01.846Z,3.60
2017-12-04T03:15:32.691Z,3.75
2017-12-04T03:18:03.550Z,3.40
2017-12-04T03:20:34.398Z,3.30
2017-12-04T03:23:05.266Z,3.50
2017-12-04T03:25:36.134Z,3.47
2017-12-04T03:28:06.983Z,3.40
2017-12-04T03:30:37.824Z,3.33
2017-12-04T03:33:08.743Z,3.17
2017-12-04T03:35:39.602Z,3.40
2017-12-04T03:38:10.434Z,3.23
2017-12-04T03:40:41.344Z,3.60
2017-12-04T03:43:12.155Z,3.33
2017-12-04T03:45:43.002Z,3.50
2017-12-04T03:48:13.845Z,3.33
2017-12-04T03:50:44.695Z,3.03
2017-12-04T03:53:15.549Z,3.83
2017-12-04T03:55:46.412Z,2.63
2017-12-04T03:58:17.261Z,3.20
2017-12-04T04:00:48.112Z,3.70
2017-12-04T04:03:18.986Z,3.37
2017-12-04T04:05:49.841Z,3.60
2017-12-04T04:08:20.711Z,3.53
2017-12-04T04:10:51.559Z,3.30
2017-12-04T04:13:22.557Z,3.30
2017-12-04T04:15:53.389Z,3.08
2017-12-04T04:18:24.220Z,3.03
2017-12-04T04:20:55.080Z,2.73
2017-12-04T04:23:25.939Z,3.37
2017-12-04T04:25:57.228Z,2.90
2017-12-04T04:28:28.059Z,2.95
2017-12-04T04:30:58.911Z,2.47
2017-12-04T04:33:29.764Z,2.70
2017-12-04T04:36:00.601Z,2.97
2017-12-04T04:38:31.476Z,2.50
2017-12-04T04:41:02.307Z,2.83
2017-12-04T04:43:33.139Z,2.43
2017-12-04T04:46:03.977Z,2.93
2017-12-04T04:48:34.821Z,2.57
2017-12-04T04:51:05.651Z,2.70
2017-12-04T04:53:36.505Z,2.73
2017-12-04T04:56:07.384Z,3.10
2017-12-04T04:58:38.240Z,2.93
2017-12-04T05:01:09.124Z,2.60
2017-12-04T05:03:39.962Z,3.00
2017-12-04T05:06:10.822Z,3.10
2017-12-04T05:08:41.662Z,3.10
2017-12-04T05:11:12.504Z,2.87
2017-12-04T05:13:43.350Z,3.00
2017-12-04T05:16:14.211Z,3.17
2017-12-04T05:18:45.069Z,2.80
2017-12-04T05:21:15.926Z,3.17
2017-12-04T05:23:46.787Z,2.60
2017-12-04T05:26:17.656Z,2.63
2017-12-04T05:28:48.492Z,2.23
2017-12-04T05:31:19.356Z,2.57
2017-12-04T05:33:50.212Z,2.50
2017-12-04T05:36:21.095Z,2.97
2017-12-04T05:38:51.930Z,2.60
2017-12-04T05:41:22.797Z,2.47
2017-12-04T05:43:53.656Z,2.53
2017-12-04T05:46:24.507Z,2.37
2017-12-04T05:48:55.363Z,2.50
2017-12-04T05:51:26.196Z,2.30
2017-12-04T05:53:57.047Z,2.60
2017-12-04T05:56:27.896Z,2.00
2017-12-04T05:58:58.834Z,2.50
2017-12-04T06:01:29.666Z,2.10
2017-12-04T06:04:00.512Z,2.40
2017-12-04T06:06:31.370Z,2.50
2017-12-04T06:09:02.230Z,1.90
2017-12-04T06:11:33.088Z,2.00
2017-12-04T06:14:03.954Z,2.40
2017-12-04T06:16:34.794Z,2.17
2017-12-04T06:19:05.677Z,2.07
2017-12-04T06:21:36.534Z,2.40
2017-12-04T06:24:07.392Z,2.13
2017-12-04T06:26:38.252Z,2.17
2017-12-04T06:29:09.118Z,2.60
2017-12-04T06:31:39.993Z,2.30
2017-12-04T06:34:10.846Z,2.13
2017-12-04T06:36:41.675Z,2.27
2017-12-04T06:39:12.523Z,2.10
2017-12-04T06:41:43.359Z,2.37
2017-12-04T06:44:14.220Z,2.17
2017-12-04T06:46:45.084Z,2.00
2017-12-04T06:49:15.941Z,2.23
2017-12-04T06:51:46.809Z,2.20
2017-12-04T06:54:17.672Z,2.07
2017-12-04T06:56:48.534Z,2.17
2017-12-04T06:59:19.372Z,1.93
2017-12-04T07:01:51.247Z,2.00
2017-12-04T07:04:22.099Z,2.53
2017-12-04T07:06:52.970Z,1.90
2017-12-04T07:09:23.813Z,2.43
2017-12-04T07:11:54.686Z,2.27
2017-12-04T07:14:25.530Z,2.13
2017-12-04T07:16:56.392Z,2.20
2017-12-04T07:19:27.244Z,1.70
2017-12-04T07:21:58.308Z,2.07
2017-12-04T07:24:29.177Z,2.60
2017-12-04T07:27:00.017Z,1.97
2017-12-04T07:29:30.892Z,1.90
2017-12-04T07:32:01.730Z,1.70
2017-12-04T07:34:32.602Z,2.00
2017-12-04T07:37:03.446Z,2.10
2017-12-04T07:39:34.719Z,1.70
2017-12-04T07:42:05.551Z,1.80
2017-12-04T07:44:36.409Z,1.60
2017-12-04T07:47:07.280Z,1.60
2017-12-04T07:49:38.136Z,1.80
2017-12-04T07:52:09.038Z,2.00
2017-12-04T07:54:39.889Z,1.63
2017-12-04T07:57:10.731Z,1.40
2017-12-04T07:59:41.578Z,1.63
2017-12-04T08:02:12.435Z,1.67
2017-12-04T08:04:43.297Z,1.50
2017-12-04T08:07:14.155Z,1.70
2017-12-04T08:09:44.992Z,1.70
2017-12-04T08:12:15.876Z,1.93
2017-12-04T08:14:46.712Z,1.90
2017-12-04T08:17:17.578Z,1.80
2017-12-04T08:19:48.429Z,1.70
2017-12-04T08:22:19.291Z,2.00
2017-12-04T08:24:50.143Z,2.00
2017-12-04T08:27:21.015Z,1.83
2017-12-04T08:29:51.876Z,1.70
2017-12-04T08:32:22.721Z,2.27
2017-12-04T08:34:53.584Z,3.03
2017-12-04T08:37:24.419Z,2.93
2017-12-04T08:39:55.282Z,4.33
2017-12-04T08:42:26.116Z,7.43
2017-12-04T08:44:56.996Z,7.13
2017-12-04T08:47:27.841Z,6.60
2017-12-04T08:49:58.708Z,7.47
2017-12-04T08:52:29.537Z,9.30
2017-12-04T08:55:00.424Z,11.00
2017-12-04T08:57:31.263Z,13.67
2017-12-04T09:00:02.103Z,14.87
2017-12-04T09:02:32.989Z,17.53
2017-12-04T09:05:03.839Z,19.77
2017-12-04T09:07:34.691Z,18.20
2017-12-04T09:10:05.540Z,19.03
2017-12-04T09:12:36.414Z,18.77
2017-12-04T09:15:07.255Z,21.03
2017-12-04T09:17:38.165Z,20.80
2017-12-04T09:20:09.022Z,22.17
2017-12-04T09:22:39.882Z,21.33
2017-12-04T09:25:10.719Z,22.43
2017-12-04T09:27:41.582Z,21.80
2017-12-04T09:30:12.440Z,22.70
2017-12-04T09:32:43.291Z,22.90
2017-12-04T09:35:14.162Z,23.47
2017-12-04T09:37:45.371Z,23.83
2017-12-04T09:40:16.197Z,24.87
2017-12-04T09:42:47.034Z,23.33
2017-12-04T09:45:17.886Z,24.10
2017-12-04T09:47:48.742Z,22.87
2017-12-04T09:50:19.583Z,23.63
2017-12-04T09:52:50.447Z,23.03
2017-12-04T09:55:21.350Z,21.63
2017-12-04T09:57:52.202Z,23.63
2017-12-04T10:00:23.041Z,21.40
2017-12-04T10:02:53.892Z,22.27
2017-12-04T10:05:24.767Z,22.30
2017-12-04T10:07:55.632Z,22.43
2017-12-04T10:10:26.496Z,22.90
2017-12-04T10:12:57.364Z,21.93
2017-12-04T10:15:28.235Z,22.40
2017-12-04T10:17:59.084Z,21.90
2017-12-04T10:20:29.951Z,23.20
2017-12-04T10:23:00.796Z,20.60
2017-12-04T10:25:31.712Z,21.60
2017-12-04T10:28:02.544Z,21.13
2017-12-04T10:30:33.440Z,21.30
2017-12-04T10:33:04.327Z,19.20
2017-12-04T10:35:35.195Z,21.00
2017-12-04T10:38:06.051Z,20.67
2017-12-04T10:40:36.931Z,20.80
2017-12-04T10:43:07.783Z,21.03
2017-12-04T10:45:38.631Z,19.27
2017-12-04T10:48:09.497Z,19.53
2017-12-04T10:50:40.336Z,18.80
2017-12-04T10:53:11.238Z,19.23
2017-12-04T10:55:42.104Z,17.97
2017-12-04T10:58:12.972Z,18.47
2017-12-04T11:00:43.835Z,17.57
2017-12-04T11:03:14.748Z,19.40
2017-12-04T11:05:45.791Z,19.27
2017-12-04T11:08:16.665Z,17.60
2017-12-04T11:10:47.505Z,16.73
2017-12-04T11:13:18.384Z,17.43
2017-12-04T11:15:49.230Z,16.63
2017-12-04T11:18:20.112Z,17.47
2017-12-04T11:20:50.976Z,16.63
2017-12-04T11:23:21.839Z,15.33
2017-12-04T11:25:52.687Z,17.20
2017-12-04T11:28:23.553Z,16.00
2017-12-04T11:30:54.406Z,18.03
2017-12-04T11:33:25.288Z,16.20
2017-12-04T11:35:56.119Z,15.13
2017-12-04T11:38:26.980Z,17.63
2017-12-04T11:40:57.835Z,16.63
2017-12-04T11:43:28.703Z,15.53
2017-12-04T11:45:59.555Z,15.43
2017-12-04T11:48:30.436Z,13.97
2017-12-04T11:51:01.344Z,14.00
2017-12-04T11:53:32.187Z,15.90
2017-12-04T11:56:03.054Z,15.73
2017-12-04T11:58:33.912Z,14.97
2017-12-04T12:01:04.750Z,14.53
2017-12-04T12:03:35.623Z,15.33
2017-12-04T12:06:06.458Z,14.10
2017-12-04T12:08:37.342Z,13.67
2017-12-04T12:11:08.188Z,14.70
2017-12-04T12:13:39.051Z,13.27
2017-12-04T12:16:09.902Z,13.53
2017-12-04T12:18:41.266Z,13.70
2017-12-04T12:21:12.328Z,13.90
2017-12-04T12:23:43.176Z,13.75
2017-12-04T12:26:14.052Z,13.40
2017-12-04T12:28:44.909Z,12.67
2017-12-04T12:31:15.766Z,14.20
2017-12-04T12:33:46.659Z,12.63
2017-12-04T12:36:17.503Z,12.43
2017-12-04T12:38:48.388Z,12.33
2017-12-04T12:41:19.270Z,11.87
2017-12-04T12:43:50.119Z,11.60
2017-12-04T12:46:20.990Z,12.23
2017-12-04T12:48:51.855Z,12.27
2017-12-04T12:51:22.741Z,10.97
2017-12-04T12:53:53.575Z,13.43
2017-12-04T12:56:24.449Z,11.23
2017-12-04T12:58:55.328Z,10.33
2017-12-04T13:01:26.179Z,11.67
2017-12-04T13:03:57.051Z,10.23
2017-12-04T13:06:27.899Z,11.00
2017-12-04T13:08:58.773Z,10.07
2017-12-04T13:11:29.635Z,11.30
2017-12-04T13:14:00.482Z,9.87
2017-12-04T13:16:31.353Z,11.00
2017-12-04T13:19:02.204Z,11.23
2017-12-04T13:21:33.080Z,11.10
2017-12-04T13:24:03.935Z,10.00
2017-12-04T13:26:34.917Z,10.17
2017-12-04T13:29:05.756Z,9.20
2017-12-04T13:31:36.627Z,9.90
2017-12-04T13:34:07.471Z,9.57
2017-12-04T13:36:38.355Z,9.60
2017-12-04T13:39:09.206Z,9.73
2017-12-04T13:41:40.076Z,9.97
2017-12-04T13:44:10.966Z,9.70
2017-12-04T13:46:41.836Z,10.27
2017-12-04T13:49:12.758Z,10.03
2017-12-04T13:51:43.583Z,8.77
2017-12-04T13:54:14.432Z,9.50
2017-12-04T13:56:45.271Z,10.37
2017-12-04T13:59:16.140Z,10.90
2017-12-04T14:01:47.000Z,9.23
2017-12-04T14:04:17.855Z,9.60
2017-12-04T14:06:48.695Z,9.10
2017-12-04T14:09:19.572Z,9.27
2017-12-04T14:11:50.431Z,8.73
2017-12-04T14:14:21.292Z,8.57
2017-12-04T14:16:52.139Z,8.77
2017-12-04T14:19:22.993Z,8.07
2017-12-04T14:21:53.851Z,7.70
2017-12-04T14:24:24.784Z,8.77
2017-12-04T14:26:55.645Z,7.60
2017-12-04T14:29:26.562Z,9.50
2017-12-04T14:31:57.449Z,7.80
2017-12-04T14:34:28.300Z,8.60
2017-12-04T14:36:59.482Z,8.33
2017-12-04T14:39:30.351Z,8.00
2017-12-04T14:42:01.224Z,7.43
2017-12-04T14:44:32.075Z,7.20
2017-12-04T14:47:02.955Z,7.60
2017-12-04T14:49:33.811Z,8.67
2017-12-04T14:52:04.684Z,6.67
2017-12-04T14:54:35.519Z,7.47
2017-12-04T14:57:06.492Z,7.67
2017-12-04T14:59:37.326Z,7.03
2017-12-04T15:02:08.197Z,7.37
2017-12-04T15:04:39.024Z,7.60
2017-12-04T15:07:09.885Z,7.50
2017-12-04T15:09:40.720Z,7.00
2017-12-04T15:12:11.601Z,7.40
2017-12-04T15:14:42.476Z,7.57
2017-12-04T15:17:13.407Z,6.43
2017-12-04T15:19:44.276Z,6.57
2017-12-04T15:22:15.133Z,7.90
2017-12-04T15:24:45.991Z,6.57
2017-12-04T15:27:16.865Z,7.30
2017-12-04T15:29:47.722Z,6.47
2017-12-04T15:32:18.617Z,6.30
2017-12-04T15:34:49.503Z,6.40
2017-12-04T15:37:20.349Z,6.60
2017-12-04T15:39:51.207Z,6.47
2017-12-04T15:42:22.066Z,6.30
2017-12-04T15:44:52.924Z,6.13
2017-12-04T15:47:23.803Z,5.83
2017-12-04T15:49:54.672Z,5.40
2017-12-04T15:52:25.522Z,5.90
2017-12-04T15:54:56.386Z,6.53
2017-12-04T15:57:27.269Z,5.83
2017-12-04T15:59:58.117Z,5.80
2017-12-04T16:02:28.984Z,5.40
2017-12-04T16:04:59.869Z,6.27
2017-12-04T16:07:30.747Z,6.00
2017-12-04T16:10:01.600Z,6.07
2017-12-04T16:12:32.472Z,4.87
2017-12-04T16:15:03.324Z,5.30
2017-12-04T16:17:34.299Z,5.00
2017-12-04T16:20:05.130Z,5.60
2017-12-04T16:22:36.029Z,5.43
2017-12-04T16:25:06.872Z,5.00
2017-12-04T16:27:37.761Z,5.40
2017-12-04T16:30:08.648Z,5.40
2017-12-04T16:32:39.526Z,4.60
2017-12-04T16:35:10.374Z,5.00
2017-12-04T16:37:41.464Z,5.20
2017-12-04T16:40:12.290Z,4.40
2017-12-04T16:42:43.177Z,4.80
2017-12-04T16:45:14.069Z,4.63
2017-12-04T16:47:44.920Z,5.57
2017-12-04T16:50:15.783Z,4.30
2017-12-04T16:52:46.675Z,4.70
2017-12-04T16:55:17.571Z,4.33
2017-12-04T16:57:48.424Z,5.27
2017-12-04T17:00:19.296Z,4.40
2017-12-04T17:02:50.209Z,3.90
2017-12-04T17:05:21.037Z,4.50
2017-12-04T17:07:52.184Z,4.70
2017-12-04T17:10:23.017Z,4.53
2017-12-04T17:12:53.868Z,4.40
2017-12-04T17:15:24.733Z,4.43
2017-12-04T17:17:55.607Z,4.40
2017-12-04T17:20:26.460Z,4.10
2017-12-04T17:22:57.311Z,4.00
2017-12-04T17:25:28.195Z,3.70
2017-12-04T17:27:59.089Z,4.10
2017-12-04T17:30:29.981Z,4.13
2017-12-04T17:33:00.861Z,4.10
2017-12-04T17:35:31.771Z,4.07
2017-12-04T17:38:02.618Z,3.93
2017-12-04T17:40:33.487Z,4.23
2017-12-04T17:43:04.364Z,4.00
2017-12-04T17:45:35.218Z,3.93
2017-12-04T17:48:06.097Z,4.10
2017-12-04T17:50:36.954Z,3.93
2017-12-04T17:53:07.805Z,4.17
2017-12-04T17:55:38.641Z,3.50
2017-12-04T17:58:09.512Z,4.27
2017-12-04T18:00:40.389Z,3.63
2017-12-04T18:03:11.407Z,4.80
2017-12-04T18:05:42.244Z,3.47
2017-12-04T18:08:13.123Z,3.67
2017-12-04T18:10:43.982Z,3.67
2017-12-04T18:13:14.858Z,4.00
2017-12-04T18:15:45.798Z,3.57
2017-12-04T18:18:16.637Z,4.10
2017-12-04T18:20:47.510Z,3.50
2017-12-04T18:23:18.383Z,3.93
2017-12-04T18:25:49.211Z,3.93
2017-12-04T18:28:20.093Z,2.90
2017-12-04T18:30:50.939Z,3.23
2017-12-04T18:33:21.841Z,3.30
2017-12-04T18:35:52.717Z,3.97
2017-12-04T18:38:23.581Z,3.40
2017-12-04T18:40:54.480Z,2.70
2017-12-04T18:43:25.355Z,3.80
2017-12-04T18:45:56.224Z,3.37
2017-12-04T18:48:27.071Z,4.10
2017-12-04T18:50:57.965Z,3.30
2017-12-04T18:53:28.876Z,3.10
2017-12-04T18:55:59.763Z,2.70
2017-12-04T18:58:30.746Z,3.17
2017-12-04T19:01:01.627Z,3.00
2017-12-04T19:03:32.484Z,2.70
2017-12-04T19:06:03.349Z,2.70
2017-12-04T19:08:34.219Z,2.80
2017-12-04T19:11:05.104Z,3.20
2017-12-04T19:13:36.354Z,3.50
2017-12-04T19:16:07.241Z,2.50
2017-12-04T19:18:38.094Z,2.80
2017-12-04T19:21:08.983Z,2.90
2017-12-04T19:23:39.841Z,3.10
2017-12-04T19:26:10.752Z,2.90
2017-12-04T19:28:41.628Z,2.40
2017-12-04T19:31:12.491Z,2.83
2017-12-04T19:33:43.378Z,2.40
2017-12-04T19:36:14.241Z,2.90
2017-12-04T19:38:45.131Z,2.70
2017-12-04T19:41:16.127Z,3.80
2017-12-04T19:43:46.978Z,3.77
2017-12-04T19:46:18.129Z,6.67
2017-12-04T19:48:49.441Z,6.87
2017-12-04T19:51:20.336Z,7.57
2017-12-04T19:53:52.035Z,7.40
2017-12-04T19:56:22.989Z,5.95
2017-12-04T19:58:53.901Z,6.70
2017-12-04T20:01:24.762Z,7.20
2017-12-04T20:03:55.671Z,5.83
2017-12-04T20:06:26.583Z,7.13
2017-12-04T20:08:57.494Z,6.30
2017-12-04T20:11:28.397Z,6.40
2017-12-04T20:13:59.301Z,6.13
2017-12-04T20:16:30.392Z,6.20
2017-12-04T20:19:02.059Z,7.30
2017-12-04T20:21:32.924Z,6.05
2017-12-04T20:24:03.826Z,5.50
2017-12-04T20:26:34.705Z,6.10
2017-12-04T20:29:05.598Z,6.07
2017-12-04T20:31:36.900Z,5.80
2017-12-04T20:34:08.150Z,7.50
2017-12-04T20:36:39.061Z,6.75
2017-12-04T20:39:09.956Z,5.43
2017-12-04T20:41:40.915Z,6.27
2017-12-04T20:44:11.746Z,6.47
2017-12-04T20:46:42.623Z,5.90
2017-12-04T20:49:14.446Z,5.93
2017-12-04T20:51:46.511Z,5.90
2017-12-04T20:54:17.870Z,5.80
2017-12-04T20:56:49.546Z,5.57
2017-12-04T20:59:22.098Z,5.95
2017-12-04T21:01:53.863Z,5.37
2017-12-04T21:04:25.035Z,4.90
2017-12-04T21:06:55.946Z,6.20
2017-12-04T21:09:27.705Z,5.40
2017-12-04T21:11:58.741Z,5.68
2017-12-04T21:14:29.900Z,5.05
2017-12-04T21:17:00.860Z,5.53
2017-12-04T21:19:33.007Z,4.70
2017-12-04T21:22:04.385Z,5.35
2017-12-04T21:24:35.807Z,5.00
2017-12-04T21:27:07.189Z,4.72
2017-12-04T21:29:38.386Z,5.20
2017-12-04T21:32:09.937Z,4.75
2017-12-04T21:34:42.419Z,4.22
2017-12-04T21:37:13.316Z,4.50
2017-12-04T21:39:44.171Z,4.70
2017-12-04T21:42:15.056Z,5.00
2017-12-04T21:44:45.936Z,4.00
2017-12-04T21:47:17.419Z,4.80
2017-12-04T21:49:48.308Z,4.03
2017-12-04T21:52:19.284Z,4.03
2017-12-04T21:54:50.176Z,11.90
2017-12-04T21:57:21.076Z,11.77
2017-12-04T21:59:52.015Z,11.67
2017-12-04T22:02:22.874Z,11.17
2017-12-04T22:04:53.762Z,11.17
2017-12-04T22:07:24.731Z,11.43
2017-12-04T22:09:55.671Z,11.88
2017-12-04T22:12:26.859Z,10.43
2017-12-04T22:14:57.763Z,11.25
2017-12-04T22:17:28.623Z,11.53
2017-12-04T22:19:59.498Z,11.30
2017-12-04T22:22:30.352Z,10.73
2017-12-04T22:25:01.225Z,10.30
2017-12-04T22:27:32.168Z,11.40
2017-12-04T22:30:03.193Z,10.27
2017-12-04T22:32:34.071Z,10.65
2017-12-04T22:35:04.943Z,10.67
2017-12-04T22:37:35.817Z,9.43
2017-12-04T22:40:06.702Z,9.63
2017-12-04T22:42:37.572Z,9.10
2017-12-04T22:45:08.431Z,9.10
2017-12-04T22:47:39.320Z,8.07
2017-12-04T22:50:10.286Z,8.63
2017-12-04T22:52:41.152Z,9.73
2017-12-04T22:55:12.967Z,9.25
2017-12-04T22:57:43.849Z,8.80
2017-12-04T23:00:14.690Z,8.80
2017-12-04T23:02:45.567Z,8.33
2017-12-04T23:05:16.420Z,8.23
2017-12-04T23:07:47.293Z,8.23
2017-12-04T23:10:18.180Z,9.63
2017-12-04T23:12:49.071Z,8.73
2017-12-04T23:15:19.998Z,8.47
2017-12-04T23:17:50.828Z,8.50
2017-12-04T23:20:21.691Z,8.17
2017-12-04T23:22:52.543Z,8.50
2017-12-04T23:25:23.428Z,6.97
2017-12-04T23:27:54.267Z,7.10
2017-12-04T23:30:25.203Z,7.47
2017-12-04T23:32:56.081Z,6.30
2017-12-04T23:35:26.938Z,6.37
2017-12-04T23:37:57.837Z,6.30
2017-12-04T23:40:28.695Z,6.90
2017-12-04T23:42:59.585Z,6.50
2017-12-04T23:45:30.446Z,5.33
2017-12-04T23:48:01.303Z,6.80
2017-12-04T23:50:32.180Z,5.73
2017-12-04T23:53:03.019Z,6.10
2017-12-04T23:55:33.898Z,6.20
2017-12-04T23:58:04.755Z,6.03
